Time;durP1;ratioP1;P1;durP2;ratioP2;P2;SDS_P1;SDS_P2;PMS_P1;PMS_P2;Temp;Humidity;BMP_temperature;BMP_pressure;BME280_temperature;BME280_humidity;BME280_pressure;Samples;Min_cycle;Max_cycle;Signal;HPM_P1;HPM_P2
2022/04/17 00:01:03;;;;;;;5.00;4.60;;;;;;;;;;5015674;28;92403;-73
2022/04/17 00:03:30;;;;;;;7.00;4.80;;;;;;;;;;5016114;28;92538;-73
2022/04/17 00:05:56;;;;;;;5.35;4.55;;;;;;;;;;5014145;28;92644;-73
2022/04/17 00:08:22;;;;;;;7.15;5.70;;;;;;;;;;5013247;28;93981;-73
2022/04/17 00:10:49;;;;;;;5.38;4.97;;;;;;;;;;5015421;28;93981;-73
2022/04/17 00:13:15;;;;;;;5.15;4.75;;;;;;;;;;5014019;28;92612;-72
2022/04/17 00:15:42;;;;;;;6.50;4.72;;;;;;;;;;5015041;28;93780;-73
2022/04/17 00:18:09;;;;;;;7.45;5.85;;;;;;;;;;5011607;28;93979;-73
2022/04/17 00:20:37;;;;;;;8.57;5.03;;;;;;;;;;5014539;28;92593;-73
2022/04/17 00:23:03;;;;;;;5.72;5.25;;;;;;;;;;5006328;28;95472;-73
2022/04/17 00:25:30;;;;;;;8.45;4.80;;;;;;;;;;5018222;28;94178;-73
2022/04/17 00:27:56;;;;;;;7.25;5.00;;;;;;;;;;5013710;28;93756;-73
2022/04/17 00:30:22;;;;;;;5.03;4.53;;;;;;;;;;5012876;28;94241;-73
2022/04/17 00:32:49;;;;;;;8.48;5.65;;;;;;;;;;5013983;28;92555;-73
2022/04/17 00:35:15;;;;;;;5.18;4.78;;;;;;;;;;5015169;28;96315;-73
2022/04/17 00:37:43;;;;;;;5.63;5.13;;;;;;;;;;5014188;28;94413;-73
2022/04/17 00:40:09;;;;;;;10.75;5.10;;;;;;;;;;5014240;28;92401;-73
2022/04/17 00:42:35;;;;;;;5.65;4.90;;;;;;;;;;5015061;28;93278;-73
2022/04/17 00:45:02;;;;;;;5.88;5.05;;;;;;;;;;4999506;28;94495;-73
2022/04/17 00:47:29;;;;;;;5.78;4.68;;;;;;;;;;5016580;28;94896;-73
2022/04/17 00:49:55;;;;;;;5.15;4.72;;;;;;;;;;5013538;28;94414;-73
2022/04/17 00:52:21;;;;;;;6.95;5.10;;;;;;;;;;4995843;28;93023;-73
2022/04/17 00:54:48;;;;;;;4.90;4.50;;;;;;;;;;5013466;28;94393;-73
2022/04/17 00:57:16;;;;;;;5.35;4.85;;;;;;;;;;5014360;28;94502;-73
2022/04/17 00:59:43;;;;;;;5.43;5.03;;;;;;;;;;5012304;28;92940;-73
2022/04/17 01:02:09;;;;;;;7.30;5.20;;;;;;;;;;5014883;28;95995;-73
2022/04/17 01:04:36;;;;;;;5.05;4.60;;;;;;;;;;5013478;28;93348;-73
2022/04/17 01:07:03;;;;;;;5.72;5.22;;;;;;;;;;5014354;28;92554;-72
2022/04/17 01:09:30;;;;;;;5.55;5.05;;;;;;;;;;5009074;28;93927;-72
2022/04/17 01:11:57;;;;;;;5.55;5.05;;;;;;;;;;4992468;28;94794;-73
2022/04/17 01:14:26;;;;;;;7.85;5.18;;;;;;;;;;5006912;28;97300;-73
2022/04/17 01:16:53;;;;;;;5.50;5.00;;;;;;;;;;5011969;28;94450;-73
2022/04/17 01:19:19;;;;;;;5.13;4.72;;;;;;;;;;5012915;28;92910;-72
2022/04/17 01:21:46;;;;;;;7.25;5.60;;;;;;;;;;5002458;28;94619;-73
2022/04/17 01:27:00;;;;;;;5.70;5.25;;;;;;;;;;5011538;28;92496;-72
2022/04/17 01:29:40;;;;;;;7.05;5.40;;;;;;;;;;5013288;28;93924;-73
2022/04/17 01:32:07;;;;;;;5.63;5.03;;;;;;;;;;5017330;28;93140;-73
2022/04/17 01:34:34;;;;;;;5.35;4.78;;;;;;;;;;5011951;28;93851;-73
2022/04/17 01:37:01;;;;;;;7.07;5.50;;;;;;;;;;5011078;28;96516;-74
2022/04/17 01:39:28;;;;;;;7.78;5.88;;;;;;;;;;5012682;28;92850;-74
2022/04/17 01:41:54;;;;;;;6.60;6.03;;;;;;;;;;5013963;28;93214;-72
2022/04/17 01:44:21;;;;;;;6.47;5.57;;;;;;;;;;5010468;28;94311;-72
2022/04/17 01:46:48;;;;;;;7.63;5.55;;;;;;;;;;4994239;28;92459;-72
2022/04/17 01:49:15;;;;;;;6.63;6.13;;;;;;;;;;4998147;28;94094;-73
2022/04/17 01:51:42;;;;;;;7.78;5.53;;;;;;;;;;5002020;28;94223;-74
2022/04/17 01:54:09;;;;;;;6.40;5.22;;;;;;;;;;4987028;28;93121;-72
2022/04/17 01:56:37;;;;;;;7.53;5.68;;;;;;;;;;5013530;28;94171;-72
2022/04/17 01:59:05;;;;;;;6.80;6.20;;;;;;;;;;5009654;28;92928;-72
2022/04/17 02:01:35;;;;;;;6.47;5.32;;;;;;;;;;4985609;28;96159;-72
2022/04/17 02:04:03;;;;;;;7.25;5.45;;;;;;;;;;5001736;28;94249;-72
2022/04/17 02:06:29;;;;;;;5.82;5.35;;;;;;;;;;5008862;28;92480;-72
2022/04/17 02:08:56;;;;;;;6.10;5.53;;;;;;;;;;4999037;28;94525;-73
2022/04/17 02:11:24;;;;;;;8.88;5.28;;;;;;;;;;4993261;28;93165;-72
2022/04/17 02:13:51;;;;;;;7.35;5.80;;;;;;;;;;5004761;28;92545;-72
2022/04/17 02:16:17;;;;;;;6.28;5.78;;;;;;;;;;4995733;28;93369;-72
2022/04/17 02:18:44;;;;;;;6.38;5.40;;;;;;;;;;5002874;28;92154;-73
2022/04/17 02:21:13;;;;;;;8.77;5.93;;;;;;;;;;4996280;28;92675;-73
2022/04/17 02:23:40;;;;;;;6.57;5.97;;;;;;;;;;5009268;28;94305;-73
2022/04/17 02:26:07;;;;;;;7.68;6.15;;;;;;;;;;5010415;28;94888;-73
2022/04/17 02:28:35;;;;;;;7.30;6.55;;;;;;;;;;5011623;28;96202;-73
2022/04/17 02:31:02;;;;;;;6.90;6.18;;;;;;;;;;5010942;28;93594;-73
2022/04/17 02:33:28;;;;;;;8.90;5.85;;;;;;;;;;5012080;28;93023;-73
2022/04/17 02:35:55;;;;;;;6.43;5.82;;;;;;;;;;5016364;28;93926;-73
2022/04/17 02:38:21;;;;;;;8.30;6.53;;;;;;;;;;5010767;28;94466;-73
2022/04/17 02:40:48;;;;;;;10.38;6.30;;;;;;;;;;5013294;28;92463;-73
2022/04/17 02:43:14;;;;;;;7.78;6.28;;;;;;;;;;5011609;28;92921;-73
2022/04/17 02:45:40;;;;;;;6.20;5.78;;;;;;;;;;5011979;28;92510;-73
2022/04/17 02:48:07;;;;;;;6.55;5.90;;;;;;;;;;5010801;28;93706;-73
2022/04/17 02:50:33;;;;;;;7.18;6.30;;;;;;;;;;4996650;28;96797;-73
2022/04/17 02:53:00;;;;;;;6.82;6.13;;;;;;;;;;4995837;28;93649;-73
2022/04/17 02:55:26;;;;;;;8.70;6.85;;;;;;;;;;5012826;28;94220;-73
2022/04/17 02:57:54;;;;;;;8.50;7.03;;;;;;;;;;5013512;28;93453;-73
2022/04/17 03:00:22;;;;;;;6.55;6.00;;;;;;;;;;5013108;28;93840;-73
2022/04/17 03:05:36;;;;;;;7.18;6.07;;;;;;;;;;5012258;28;92747;-73
2022/04/17 03:08:07;;;;;;;6.88;6.18;;;;;;;;;;5011366;28;92812;-73
2022/04/17 03:10:37;;;;;;;7.75;5.97;;;;;;;;;;5012715;28;94512;-74
2022/04/17 03:13:04;;;;;;;6.68;6.07;;;;;;;;;;5008198;28;93013;-73
2022/04/17 03:15:35;;;;;;;7.70;5.80;;;;;;;;;;5008401;28;95248;-73
2022/04/17 03:18:02;;;;;;;7.18;6.47;;;;;;;;;;4972964;28;94117;-73
2022/04/17 03:20:28;;;;;;;7.25;6.55;;;;;;;;;;4988535;28;94038;-73
2022/04/17 03:22:55;;;;;;;6.95;6.30;;;;;;;;;;4979866;28;93620;-73
2022/04/17 03:25:21;;;;;;;7.38;6.68;;;;;;;;;;4978647;28;93229;-73
2022/04/17 03:27:48;;;;;;;7.72;6.90;;;;;;;;;;5012993;28;94030;-73
2022/04/17 03:30:15;;;;;;;6.88;6.18;;;;;;;;;;5002367;28;94244;-73
2022/04/17 03:32:44;;;;;;;6.38;5.85;;;;;;;;;;5018650;28;91788;-73
2022/04/17 03:35:11;;;;;;;9.43;7.10;;;;;;;;;;5017807;28;93279;-73
2022/04/17 03:37:37;;;;;;;11.02;6.60;;;;;;;;;;5019020;28;94128;-73
2022/04/17 03:40:04;;;;;;;7.88;6.68;;;;;;;;;;5015555;28;94905;-73
2022/04/17 03:42:31;;;;;;;7.43;6.60;;;;;;;;;;5021829;28;96315;-73
2022/04/17 03:44:57;;;;;;;6.70;6.15;;;;;;;;;;5017759;28;94456;-73
2022/04/17 03:47:24;;;;;;;11.70;7.53;;;;;;;;;;5018578;28;92935;-73
2022/04/17 03:49:50;;;;;;;12.95;6.80;;;;;;;;;;5006687;28;93088;-73
2022/04/17 03:52:17;;;;;;;8.05;6.55;;;;;;;;;;4999054;28;92482;-73
2022/04/17 03:54:43;;;;;;;8.77;7.78;;;;;;;;;;5003679;28;94290;-73
2022/04/17 03:57:09;;;;;;;15.80;8.27;;;;;;;;;;5019295;28;93507;-74
2022/04/17 03:59:36;;;;;;;10.57;8.00;;;;;;;;;;5008559;28;93286;-73
2022/04/17 04:02:03;;;;;;;11.13;7.28;;;;;;;;;;5001127;28;92929;-73
2022/04/17 04:04:30;;;;;;;9.27;8.23;;;;;;;;;;5004956;28;95904;-74
2022/04/17 04:06:56;;;;;;;9.65;7.38;;;;;;;;;;5019352;28;95461;-73
2022/04/17 04:09:22;;;;;;;10.90;7.93;;;;;;;;;;5016067;28;94224;-73
2022/04/17 04:11:48;;;;;;;11.73;8.50;;;;;;;;;;5019212;28;92918;-73
2022/04/17 04:14:15;;;;;;;10.52;8.25;;;;;;;;;;5017404;28;94300;-73
2022/04/17 04:16:41;;;;;;;12.30;8.60;;;;;;;;;;5015885;28;94151;-73
2022/04/17 04:19:09;;;;;;;7.80;7.10;;;;;;;;;;5015616;28;93988;-73
2022/04/17 04:21:47;;;;;;;10.75;7.55;;;;;;;;;;4999988;28;92919;-73
2022/04/17 04:24:14;;;;;;;8.70;7.20;;;;;;;;;;5021759;28;94143;-73
2022/04/17 04:26:41;;;;;;;8.18;7.47;;;;;;;;;;5017004;28;93095;-73
2022/04/17 04:29:08;;;;;;;8.32;7.45;;;;;;;;;;5016034;28;96516;-73
2022/04/17 04:31:34;;;;;;;9.10;7.47;;;;;;;;;;5015612;28;92505;-73
2022/04/17 04:34:01;;;;;;;9.95;7.53;;;;;;;;;;5015027;28;93181;-73
2022/04/17 04:36:27;;;;;;;10.68;7.63;;;;;;;;;;5014107;28;93609;-73
2022/04/17 04:38:53;;;;;;;8.05;7.35;;;;;;;;;;5014237;28;92549;-73
2022/04/17 04:41:20;;;;;;;8.98;7.50;;;;;;;;;;5012698;28;94372;-73
2022/04/17 04:43:46;;;;;;;11.73;8.50;;;;;;;;;;5014374;28;94009;-73
2022/04/17 04:46:13;;;;;;;15.15;7.38;;;;;;;;;;5016899;28;92429;-73
2022/04/17 04:51:25;;;;;;;8.05;7.35;;;;;;;;;;5011775;28;92641;-73
2022/04/17 04:53:53;;;;;;;11.90;7.63;;;;;;;;;;5013517;28;94868;-72
2022/04/17 04:56:19;;;;;;;8.70;7.80;;;;;;;;;;5013150;28;94126;-73
2022/04/17 04:58:45;;;;;;;12.02;7.90;;;;;;;;;;5013992;28;92443;-73
2022/04/17 05:01:12;;;;;;;12.95;8.25;;;;;;;;;;5012949;28;93148;-74
2022/04/17 05:03:39;;;;;;;9.90;8.82;;;;;;;;;;5014514;28;94559;-75
2022/04/17 05:06:06;;;;;;;9.38;7.63;;;;;;;;;;5012681;28;92986;-74
2022/04/17 05:08:32;;;;;;;9.57;7.80;;;;;;;;;;5016815;28;95260;-75
2022/04/17 05:10:58;;;;;;;9.23;8.07;;;;;;;;;;5013259;28;92292;-73
2022/04/17 05:13:25;;;;;;;9.65;8.70;;;;;;;;;;5013089;28;94976;-73
2022/04/17 05:15:52;;;;;;;10.32;8.85;;;;;;;;;;5014553;28;93931;-73
2022/04/17 05:18:18;;;;;;;9.02;8.05;;;;;;;;;;5010933;28;95058;-73
2022/04/17 05:20:44;;;;;;;8.95;8.10;;;;;;;;;;4994943;28;94159;-73
2022/04/17 05:23:26;;;;;;;11.75;9.00;;;;;;;;;;5002265;28;94332;-73
2022/04/17 05:25:53;;;;;;;11.70;8.50;;;;;;;;;;5013758;28;92495;-73
2022/04/17 05:28:20;;;;;;;8.98;8.07;;;;;;;;;;5013118;28;94340;-73
2022/04/17 05:30:47;;;;;;;9.52;8.45;;;;;;;;;;5017320;28;94203;-73
2022/04/17 05:33:16;;;;;;;9.40;8.43;;;;;;;;;;5012401;28;94112;-74
2022/04/17 05:35:43;;;;;;;19.17;8.93;;;;;;;;;;5014451;28;93413;-74
2022/04/17 05:38:09;;;;;;;9.75;7.93;;;;;;;;;;5012491;28;93261;-73
2022/04/17 05:40:37;;;;;;;12.73;7.97;;;;;;;;;;5011030;28;93166;-71
2022/04/17 05:43:04;;;;;;;11.60;8.68;;;;;;;;;;5012367;28;96686;-74
2022/04/17 05:45:32;;;;;;;10.85;8.13;;;;;;;;;;5006381;28;92496;-74
2022/04/17 05:47:58;;;;;;;19.38;9.15;;;;;;;;;;4993574;28;93976;-75
2022/04/17 05:50:25;;;;;;;13.88;9.00;;;;;;;;;;4996536;28;94220;-74
2022/04/17 05:52:52;;;;;;;15.27;8.95;;;;;;;;;;5015095;28;92613;-74
2022/04/17 05:55:19;;;;;;;13.77;8.38;;;;;;;;;;5011603;28;95205;-74
2022/04/17 05:57:45;;;;;;;16.38;9.75;;;;;;;;;;4982262;28;93385;-74
2022/04/17 06:00:12;;;;;;;9.80;8.80;;;;;;;;;;4982157;28;93013;-75
2022/04/17 06:02:41;;;;;;;8.57;7.75;;;;;;;;;;4973575;28;94119;-74
2022/04/17 06:05:08;;;;;;;14.40;8.35;;;;;;;;;;4994052;28;92554;-74
2022/04/17 06:07:34;;;;;;;10.15;8.90;;;;;;;;;;5009963;28;97334;-75
2022/04/17 06:10:05;;;;;;;10.52;8.98;;;;;;;;;;4985462;28;95144;-74
2022/04/17 06:12:31;;;;;;;13.10;8.60;;;;;;;;;;4996525;28;92460;-75
2022/04/17 06:14:58;;;;;;;10.98;8.65;;;;;;;;;;5003179;28;93284;-75
2022/04/17 06:17:24;;;;;;;10.45;8.07;;;;;;;;;;4997127;28;92404;-75
2022/04/17 06:19:51;;;;;;;19.23;8.98;;;;;;;;;;5013521;28;93963;-74
2022/04/17 06:22:20;;;;;;;9.75;8.75;;;;;;;;;;5011061;28;93337;-74
2022/04/17 06:24:46;;;;;;;14.18;9.48;;;;;;;;;;5014070;28;91739;-74
2022/04/17 06:27:13;;;;;;;9.90;8.88;;;;;;;;;;5010248;28;93219;-74
2022/04/17 06:29:39;;;;;;;11.40;8.82;;;;;;;;;;5013076;28;94391;-74
2022/04/17 06:32:07;;;;;;;14.38;9.85;;;;;;;;;;5010371;28;95025;-74
2022/04/17 06:34:33;;;;;;;13.15;9.55;;;;;;;;;;5014313;28;96792;-74
2022/04/17 06:36:59;;;;;;;18.38;8.85;;;;;;;;;;5013064;28;92460;-74
2022/04/17 06:39:26;;;;;;;8.88;8.00;;;;;;;;;;5011229;28;93957;-75
2022/04/17 06:41:54;;;;;;;8.57;7.78;;;;;;;;;;5009372;28;94618;-74
2022/04/17 06:44:24;;;;;;;9.57;7.78;;;;;;;;;;5009681;28;92603;-74
2022/04/17 06:46:50;;;;;;;9.95;7.82;;;;;;;;;;4992563;28;94145;-73
2022/04/17 06:49:16;;;;;;;9.13;7.45;;;;;;;;;;4993511;28;92577;-73
2022/04/17 06:51:43;;;;;;;9.23;7.88;;;;;;;;;;4992030;28;92488;-73
2022/04/17 06:54:09;;;;;;;10.13;8.23;;;;;;;;;;4993486;28;93191;-73
2022/04/17 06:56:35;;;;;;;9.38;7.88;;;;;;;;;;4994828;28;96969;-74
2022/04/17 06:59:05;;;;;;;15.93;7.50;;;;;;;;;;4993333;28;95828;-73
2022/04/17 07:01:32;;;;;;;8.63;7.32;;;;;;;;;;5011248;28;95181;-71
2022/04/17 07:03:58;;;;;;;7.18;6.47;;;;;;;;;;4994172;28;92853;-74
2022/04/17 07:06:25;;;;;;;7.05;6.40;;;;;;;;;;4995321;28;93709;-73
2022/04/17 07:08:51;;;;;;;7.13;6.22;;;;;;;;;;5006279;28;94598;-74
2022/04/17 07:11:19;;;;;;;6.95;5.93;;;;;;;;;;5010149;28;94107;-70
2022/04/17 07:13:47;;;;;;;6.47;5.88;;;;;;;;;;4994122;28;94926;-73
2022/04/17 07:16:13;;;;;;;6.35;5.85;;;;;;;;;;4983693;28;94369;-73
2022/04/17 07:18:39;;;;;;;9.43;5.57;;;;;;;;;;4997441;28;92794;-73
2022/04/17 07:21:06;;;;;;;6.00;5.40;;;;;;;;;;4985890;28;96417;-73
2022/04/17 07:23:32;;;;;;;8.77;6.00;;;;;;;;;;4985531;28;93801;-73
2022/04/17 07:25:58;;;;;;;7.43;5.38;;;;;;;;;;4987277;28;94275;-73
2022/04/17 07:28:25;;;;;;;9.57;5.75;;;;;;;;;;4987397;28;92460;-74
2022/04/17 07:30:51;;;;;;;9.75;5.20;;;;;;;;;;4995107;28;92729;-76
2022/04/17 07:33:17;;;;;;;5.45;5.05;;;;;;;;;;5012005;28;94125;-71
2022/04/17 07:35:44;;;;;;;5.47;5.00;;;;;;;;;;4987952;28;96579;-73
2022/04/17 07:38:10;;;;;;;6.90;5.28;;;;;;;;;;4986848;28;93333;-73
2022/04/17 07:40:37;;;;;;;5.10;4.70;;;;;;;;;;4996948;28;93845;-76
2022/04/17 07:43:03;;;;;;;7.53;4.82;;;;;;;;;;5007006;28;92570;-73
2022/04/17 07:45:31;;;;;;;5.28;4.75;;;;;;;;;;5003602;28;94935;-72
2022/04/17 07:47:57;;;;;;;6.63;4.85;;;;;;;;;;4984471;28;93612;-72
2022/04/17 07:50:24;;;;;;;4.55;4.00;;;;;;;;;;4987128;28;94905;-72
2022/04/17 07:52:52;;;;;;;5.25;4.75;;;;;;;;;;4986478;28;93765;-72
2022/04/17 07:55:18;;;;;;;5.20;4.80;;;;;;;;;;4982936;28;94149;-72
2022/04/17 08:00:24;;;;;;;5.22;4.82;;;;;;;;;;4986341;28;94313;-72
2022/04/17 08:03:24;;;;;;;5.97;5.07;;;;;;;;;;4987172;28;93952;-72
2022/04/17 08:05:50;;;;;;;7.60;5.18;;;;;;;;;;4987802;28;94079;-72
2022/04/17 08:08:17;;;;;;;7.40;5.28;;;;;;;;;;4990549;28;92558;-72
2022/04/17 08:10:43;;;;;;;4.85;4.45;;;;;;;;;;4984478;28;95641;-72
2022/04/17 08:13:09;;;;;;;6.05;4.72;;;;;;;;;;4989354;28;96358;-72
2022/04/17 08:15:36;;;;;;;6.82;4.97;;;;;;;;;;4982928;28;94468;-73
2022/04/17 08:18:03;;;;;;;6.30;5.43;;;;;;;;;;4983141;28;94827;-72
2022/04/17 08:20:29;;;;;;;8.90;5.40;;;;;;;;;;4987907;28;93840;-72
2022/04/17 08:22:55;;;;;;;4.80;4.38;;;;;;;;;;4999492;28;95232;-73
2022/04/17 08:25:22;;;;;;;5.80;5.20;;;;;;;;;;4983465;28;94287;-72
2022/04/17 08:27:49;;;;;;;5.00;4.45;;;;;;;;;;5008430;28;93449;-72
2022/04/17 08:30:19;;;;;;;5.57;4.65;;;;;;;;;;5013413;28;92477;-73
2022/04/17 08:32:46;;;;;;;5.18;4.50;;;;;;;;;;5014926;28;93141;-73
2022/04/17 08:35:12;;;;;;;5.57;4.95;;;;;;;;;;4988633;28;95670;-73
2022/04/17 08:37:38;;;;;;;5.93;4.50;;;;;;;;;;4980731;28;93355;-73
2022/04/17 08:40:05;;;;;;;6.32;5.20;;;;;;;;;;4988362;28;94636;-73
2022/04/17 08:42:32;;;;;;;6.72;4.85;;;;;;;;;;4991776;28;94732;-73
2022/04/17 08:44:58;;;;;;;7.78;5.10;;;;;;;;;;4989719;28;94512;-73
2022/04/17 08:47:25;;;;;;;8.15;5.45;;;;;;;;;;4987405;28;94723;-71
2022/04/17 08:49:54;;;;;;;6.00;4.90;;;;;;;;;;4987489;28;92929;-73
2022/04/17 08:52:21;;;;;;;5.60;4.43;;;;;;;;;;4991933;28;93942;-73
2022/04/17 08:54:48;;;;;;;5.50;5.00;;;;;;;;;;4994893;28;94585;-73
2022/04/17 08:57:16;;;;;;;5.43;4.93;;;;;;;;;;5006017;28;92576;-73
2022/04/17 08:59:42;;;;;;;5.65;5.20;;;;;;;;;;4992948;28;94837;-73
2022/04/17 09:02:12;;;;;;;7.18;5.07;;;;;;;;;;4994649;28;93433;-73
2022/04/17 09:04:40;;;;;;;7.20;5.40;;;;;;;;;;4986899;28;93847;-73
2022/04/17 09:07:08;;;;;;;7.90;5.80;;;;;;;;;;4978042;28;93897;-73
2022/04/17 09:09:38;;;;;;;5.40;5.00;;;;;;;;;;4974336;28;92528;-73
2022/04/17 09:12:06;;;;;;;5.25;4.95;;;;;;;;;;4974547;28;92417;-73
2022/04/17 09:14:39;;;;;;;6.78;5.60;;;;;;;;;;4974364;28;94183;-73
2022/04/17 09:17:08;;;;;;;5.68;5.05;;;;;;;;;;4975105;28;92306;-73
2022/04/17 09:19:34;;;;;;;5.65;5.15;;;;;;;;;;4976973;28;93292;-73
2022/04/17 09:22:01;;;;;;;6.10;5.00;;;;;;;;;;4994474;28;94274;-73
2022/04/17 09:24:28;;;;;;;5.95;5.07;;;;;;;;;;4991949;28;94866;-73
2022/04/17 09:26:55;;;;;;;6.40;5.80;;;;;;;;;;4994385;28;96557;-73
2022/04/17 09:29:23;;;;;;;5.45;5.00;;;;;;;;;;4981483;28;94783;-73
2022/04/17 09:31:56;;;;;;;5.68;5.18;;;;;;;;;;4974249;28;93986;-73
2022/04/17 09:34:23;;;;;;;5.57;5.07;;;;;;;;;;4974295;28;94148;-73
2022/04/17 09:36:56;;;;;;;6.57;5.07;;;;;;;;;;4974626;28;92514;-73
2022/04/17 09:39:23;;;;;;;7.97;5.32;;;;;;;;;;4973620;28;93913;-73
2022/04/17 09:41:52;;;;;;;7.60;4.45;;;;;;;;;;4974782;28;93453;-73
2022/04/17 09:44:34;;;;;;;4.82;4.28;;;;;;;;;;4978023;28;92491;-73
2022/04/17 09:47:05;;;;;;;5.15;4.38;;;;;;;;;;4982532;28;94093;-72
2022/04/17 09:49:31;;;;;;;5.60;4.32;;;;;;;;;;4973088;28;95971;-72
2022/04/17 09:52:07;;;;;;;4.35;4.00;;;;;;;;;;4977441;28;92524;-73
2022/04/17 09:54:34;;;;;;;4.60;4.05;;;;;;;;;;4974434;28;94033;-72
2022/04/17 09:57:00;;;;;;;4.63;4.22;;;;;;;;;;4974533;28;92604;-73
2022/04/17 09:59:27;;;;;;;7.05;4.28;;;;;;;;;;4973309;28;93970;-73
2022/04/17 10:01:55;;;;;;;4.60;4.20;;;;;;;;;;4977961;28;93645;-73
2022/04/17 10:04:24;;;;;;;3.75;3.45;;;;;;;;;;4973831;28;92548;-72
2022/04/17 10:06:51;;;;;;;10.30;4.07;;;;;;;;;;4974041;28;93941;-72
2022/04/17 10:09:18;;;;;;;4.00;3.70;;;;;;;;;;4973971;28;93491;-73
2022/04/17 10:11:44;;;;;;;4.07;3.65;;;;;;;;;;4973736;28;92486;-73
2022/04/17 10:14:11;;;;;;;5.43;4.03;;;;;;;;;;4976213;28;95235;-73
2022/04/17 10:16:41;;;;;;;4.07;3.72;;;;;;;;;;4973709;28;92433;-73
2022/04/17 10:19:12;;;;;;;6.63;3.58;;;;;;;;;;4976203;28;92749;-73
2022/04/17 10:21:39;;;;;;;4.32;4.03;;;;;;;;;;4975162;28;93568;-73
2022/04/17 10:24:07;;;;;;;6.13;3.63;;;;;;;;;;4993427;28;92574;-72
2022/04/17 10:26:37;;;;;;;4.82;3.78;;;;;;;;;;4993615;28;94248;-73
2022/04/17 10:29:06;;;;;;;5.10;3.42;;;;;;;;;;4992670;28;93466;-73
2022/04/17 10:31:52;;;;;;;3.53;3.28;;;;;;;;;;4992770;28;91767;-73
2022/04/17 10:34:33;;;;;;;4.82;3.45;;;;;;;;;;4955843;28;93164;-73
2022/04/17 10:37:11;;;;;;;3.38;3.15;;;;;;;;;;4993569;28;92509;-73
2022/04/17 10:39:40;;;;;;;4.05;3.75;;;;;;;;;;4991657;28;95589;-73
2022/04/17 10:42:07;;;;;;;4.68;3.90;;;;;;;;;;4992635;28;94301;-72
2022/04/17 10:44:38;;;;;;;4.72;4.32;;;;;;;;;;4993080;28;93115;-73
2022/04/17 10:47:05;;;;;;;4.57;4.05;;;;;;;;;;4980187;28;93366;-73
2022/04/17 10:49:32;;;;;;;4.88;4.00;;;;;;;;;;4972464;28;92453;-72
2022/04/17 10:51:59;;;;;;;5.85;3.88;;;;;;;;;;4976873;28;92650;-73
2022/04/17 10:54:45;;;;;;;3.60;3.40;;;;;;;;;;4993123;28;93084;-73
2022/04/17 10:57:12;;;;;;;5.38;3.80;;;;;;;;;;4979443;28;93266;-73
2022/04/17 10:59:40;;;;;;;5.05;4.00;;;;;;;;;;4972980;28;93186;-75
2022/04/17 11:02:06;;;;;;;4.07;3.78;;;;;;;;;;4973155;28;94236;-73
2022/04/17 11:04:55;;;;;;;5.03;4.10;;;;;;;;;;4970822;28;95191;-73
2022/04/17 11:07:23;;;;;;;7.55;3.40;;;;;;;;;;4972944;28;96310;-73
2022/04/17 11:10:03;;;;;;;4.28;3.88;;;;;;;;;;4972991;28;93396;-73
2022/04/17 11:12:30;;;;;;;3.85;3.55;;;;;;;;;;4973295;28;92555;-73
2022/04/17 11:15:02;;;;;;;4.05;3.75;;;;;;;;;;4973017;28;92794;-73
2022/04/17 11:17:29;;;;;;;4.30;3.85;;;;;;;;;;4977382;28;94423;-73
2022/04/17 11:19:56;;;;;;;4.88;3.67;;;;;;;;;;4977396;28;92530;-73
2022/04/17 11:22:32;;;;;;;4.20;3.90;;;;;;;;;;4982977;28;92857;-73
2022/04/17 11:25:00;;;;;;;3.38;3.17;;;;;;;;;;4992356;28;92580;-73
2022/04/17 11:27:46;;;;;;;4.53;3.47;;;;;;;;;;4992661;28;93921;-73
2022/04/17 11:30:34;;;;;;;3.55;3.30;;;;;;;;;;4990548;28;97000;-73
2022/04/17 11:33:01;;;;;;;3.30;2.90;;;;;;;;;;4992231;28;92518;-72
2022/04/17 11:35:29;;;;;;;3.70;3.40;;;;;;;;;;4992535;28;93245;-72
2022/04/17 11:37:57;;;;;;;5.18;3.35;;;;;;;;;;4991918;28;94602;-72
2022/04/17 11:40:25;;;;;;;4.00;2.95;;;;;;;;;;4992087;28;92459;-72
2022/04/17 11:42:53;;;;;;;3.75;3.13;;;;;;;;;;4998313;28;93232;-72
2022/04/17 11:45:25;;;;;;;3.90;3.10;;;;;;;;;;4995555;28;92500;-72
2022/04/17 11:47:52;;;;;;;8.07;3.67;;;;;;;;;;4996472;28;93950;-72
2022/04/17 11:50:20;;;;;;;3.30;2.72;;;;;;;;;;4995913;28;94415;-72
2022/04/17 11:52:50;;;;;;;3.80;3.50;;;;;;;;;;4995244;28;92572;-72
2022/04/17 11:55:16;;;;;;;3.00;2.78;;;;;;;;;;4994520;28;95351;-72
2022/04/17 11:57:42;;;;;;;3.30;3.00;;;;;;;;;;4995535;28;94221;-72
2022/04/17 12:00:11;;;;;;;3.60;3.25;;;;;;;;;;4995612;28;92704;-72
2022/04/17 12:02:38;;;;;;;3.38;3.15;;;;;;;;;;4995630;28;94204;-72
2022/04/17 12:05:08;;;;;;;4.10;3.65;;;;;;;;;;4998737;28;94245;-72
2022/04/17 12:07:35;;;;;;;3.95;3.08;;;;;;;;;;4994845;28;94102;-71
2022/04/17 12:10:05;;;;;;;5.18;3.38;;;;;;;;;;4987796;28;94262;-73
2022/04/17 12:12:36;;;;;;;11.57;3.42;;;;;;;;;;4987791;28;91724;-74
2022/04/17 12:15:03;;;;;;;3.67;3.38;;;;;;;;;;4983859;28;93264;-74
2022/04/17 12:17:31;;;;;;;4.00;2.95;;;;;;;;;;4982372;28;94163;-74
2022/04/17 12:19:58;;;;;;;3.70;3.40;;;;;;;;;;4984196;28;96654;-74
2022/04/17 12:22:25;;;;;;;3.90;3.13;;;;;;;;;;4982826;28;95382;-74
2022/04/17 12:24:52;;;;;;;4.03;3.63;;;;;;;;;;4988140;28;94386;-74
2022/04/17 12:27:19;;;;;;;3.78;3.45;;;;;;;;;;4984128;28;93881;-74
2022/04/17 12:29:46;;;;;;;3.85;3.53;;;;;;;;;;4982719;28;95236;-74
2022/04/17 12:32:17;;;;;;;4.28;3.40;;;;;;;;;;4988895;28;92665;-74
2022/04/17 12:34:45;;;;;;;4.00;3.45;;;;;;;;;;4988684;28;93851;-74
2022/04/17 12:37:31;;;;;;;3.30;3.10;;;;;;;;;;4986791;28;93325;-74
2022/04/17 12:40:16;;;;;;;3.42;3.15;;;;;;;;;;4982115;28;93169;-74
2022/04/17 12:42:43;;;;;;;2.65;2.47;;;;;;;;;;4986831;28;93055;-75
2022/04/17 12:45:10;;;;;;;3.50;2.50;;;;;;;;;;4987313;28;96611;-74
2022/04/17 12:47:38;;;;;;;2.72;2.55;;;;;;;;;;4987640;28;92561;-74
2022/04/17 12:50:06;;;;;;;2.85;2.63;;;;;;;;;;4991059;28;93144;-74
2022/04/17 12:52:37;;;;;;;3.70;3.03;;;;;;;;;;4990143;28;92588;-74
2022/04/17 12:55:10;;;;;;;4.45;2.85;;;;;;;;;;4984638;28;94558;-74
2022/04/17 12:57:36;;;;;;;4.15;2.70;;;;;;;;;;4982569;28;94337;-73
2022/04/17 13:00:15;;;;;;;2.67;2.47;;;;;;;;;;4985768;28;94139;-73
2022/04/17 13:02:42;;;;;;;2.72;2.53;;;;;;;;;;5001325;28;93417;-73
2022/04/17 13:05:20;;;;;;;4.80;2.90;;;;;;;;;;4992354;28;92518;-74
2022/04/17 13:07:46;;;;;;;3.03;2.83;;;;;;;;;;4986215;28;92897;-74
2022/04/17 13:10:12;;;;;;;4.30;2.78;;;;;;;;;;4984507;28;96800;-74
2022/04/17 13:12:45;;;;;;;4.63;2.88;;;;;;;;;;4993837;28;93473;-74
2022/04/17 13:15:14;;;;;;;;;;;;;;;;;;4988128;28;93371;-74
2022/04/17 13:17:45;;;;;;;2.42;2.22;;;;;;;;;;4984729;28;123759;-73
2022/04/17 13:20:12;;;;;;;3.50;3.20;;;;;;;;;;4989256;28;94431;-72
2022/04/17 13:22:39;;;;;;;3.80;2.22;;;;;;;;;;4988046;28;94009;-73
2022/04/17 13:25:06;;;;;;;3.03;2.83;;;;;;;;;;4987806;28;96337;-71
2022/04/17 13:27:32;;;;;;;2.58;2.30;;;;;;;;;;4993116;28;92889;-71
2022/04/17 13:29:59;;;;;;;5.55;2.60;;;;;;;;;;4987159;28;93449;-71
2022/04/17 13:32:25;;;;;;;5.43;3.15;;;;;;;;;;4991584;28;94309;-72
2022/04/17 13:34:52;;;;;;;2.58;2.13;;;;;;;;;;4979651;28;95899;-72
2022/04/17 13:40:03;;;;;;;4.40;3.08;;;;;;;;;;5003334;28;92779;-71
2022/04/17 13:42:29;;;;;;;3.00;2.75;;;;;;;;;;5007573;28;93988;-72
2022/04/17 13:44:56;;;;;;;3.88;3.05;;;;;;;;;;5009804;28;93179;-72
2022/04/17 13:47:23;;;;;;;2.60;2.40;;;;;;;;;;4973828;28;92499;-72
2022/04/17 13:49:49;;;;;;;3.10;2.90;;;;;;;;;;4975302;28;93941;-72
2022/04/17 13:52:15;;;;;;;3.75;2.70;;;;;;;;;;5009547;28;93496;-71
2022/04/17 13:54:42;;;;;;;3.85;2.97;;;;;;;;;;5012440;28;92443;-72
2022/04/17 13:57:08;;;;;;;3.13;2.67;;;;;;;;;;4982641;28;94222;-72
2022/04/17 13:59:34;;;;;;;2.17;2.08;;;;;;;;;;4989286;28;94919;-72
2022/04/17 14:02:01;;;;;;;5.35;2.80;;;;;;;;;;4983630;28;96463;-72
2022/04/17 14:04:27;;;;;;;4.88;3.05;;;;;;;;;;4993387;28;94277;-72
2022/04/17 14:06:54;;;;;;;3.10;2.72;;;;;;;;;;4997080;28;92914;-72
2022/04/17 14:09:21;;;;;;;4.93;2.58;;;;;;;;;;4994998;28;95389;-72
2022/04/17 14:11:47;;;;;;;2.88;2.60;;;;;;;;;;4998004;28;94178;-73
2022/04/17 14:14:14;;;;;;;5.65;2.95;;;;;;;;;;5005497;28;93011;-72
2022/04/17 14:16:40;;;;;;;3.00;2.80;;;;;;;;;;5005201;28;93991;-72
2022/04/17 14:19:08;;;;;;;3.17;2.97;;;;;;;;;;4982607;28;92591;-72
2022/04/17 14:21:35;;;;;;;4.95;2.58;;;;;;;;;;5010451;28;93015;-72
2022/04/17 14:24:01;;;;;;;3.05;2.80;;;;;;;;;;5006716;28;96536;-72
2022/04/17 14:26:27;;;;;;;2.88;2.60;;;;;;;;;;5007106;28;92625;-72
2022/04/17 14:28:54;;;;;;;3.28;2.60;;;;;;;;;;5014094;28;93277;-72
2022/04/17 14:31:20;;;;;;;5.20;2.38;;;;;;;;;;5007947;28;94086;-72
2022/04/17 14:33:47;;;;;;;3.70;2.70;;;;;;;;;;5012891;28;92541;-72
2022/04/17 14:36:13;;;;;;;3.25;2.97;;;;;;;;;;5010567;28;94380;-72
2022/04/17 14:38:39;;;;;;;3.15;2.80;;;;;;;;;;4996917;28;93070;-72
2022/04/17 14:41:06;;;;;;;4.57;2.88;;;;;;;;;;5006421;28;93846;-73
2022/04/17 14:43:34;;;;;;;2.75;2.55;;;;;;;;;;5012417;28;93273;-72
2022/04/17 14:46:00;;;;;;;2.97;2.78;;;;;;;;;;4986470;28;94087;-72
2022/04/17 14:48:26;;;;;;;3.72;3.53;;;;;;;;;;5003102;28;94792;-72
2022/04/17 14:50:54;;;;;;;7.07;3.22;;;;;;;;;;4985163;28;94163;-72
2022/04/17 14:53:21;;;;;;;4.45;2.67;;;;;;;;;;4992601;28;93167;-73
2022/04/17 14:55:48;;;;;;;4.90;3.42;;;;;;;;;;5002551;28;93215;-73
2022/04/17 14:58:14;;;;;;;7.05;3.28;;;;;;;;;;4986540;28;93817;-73